| time (UTC) | temp F | wind direction | speed MPH | gust MPH | rain 1hr in | rain 24hr in | rain mn in | humidity % | barometer mb |
| 20260902170301 | 64 | 33 | 3.0 | 8.0 | 0.00 | 0.00 | 0.00 | 74 | 1003.3 |
| 20260902165801 | 63 | 66 | 3.0 | 6.0 | 0.00 | 0.00 | 0.00 | 75 | 1003.3 |
| 20260902165308 | 63 | 314 | 4.0 | 11.0 | 0.00 | 0.00 | 0.00 | 74 | 1003.3 |
| 20260902164809 | 63 | 342 | 5.0 | 11.0 | 0.00 | 0.00 | 0.00 | 75 | 1003.2 |
| 20260902164304 | 64 | 301 | 4.0 | 9.0 | 0.00 | 0.00 | 0.00 | 74 | 1003.3 |
| 20260902163802 | 64 | 306 | 4.0 | 9.0 | 0.00 | 0.00 | 0.00 | 74 | 1003.2 |
| 20260902163301 | 64 | 285 | 4.0 | 12.0 | 0.00 | 0.00 | 0.00 | 76 | 1003.2 |
| 20260902163028 | 62 | 336 | 3.0 | 12.0 | 0.00 | 0.00 | 0.00 | 77 | 1003.2 |
| 20260902162522 | 62 | 308 | 2.0 | 8.0 | 0.00 | 0.00 | 0.00 | 77 | 1003.3 |
| 20260902161802 | 62 | 20 | 3.0 | 17.0 | 0.00 | 0.00 | 0.00 | 77 | 1003.2 |
| 20260902161301 | 62 | 31 | 4.0 | 17.0 | 0.00 | 0.00 | 0.00 | 77 | 1003.3 |
| 20260902160801 | 62 | 316 | 3.0 | 15.0 | 0.00 | 0.00 | 0.00 | 77 | 1003.3 |
| 20260902160303 | 62 | 39 | 3.0 | 12.0 | 0.00 | 0.00 | 0.00 | 78 | 1003.3 |
| 20260902155801 | 62 | 61 | 4.0 | 12.0 | 0.00 | 0.00 | 0.00 | 77 | 1003.4 |
| 20260902155301 | 62 | 353 | 5.0 | 16.0 | 0.00 | 0.00 | 0.00 | 78 | 1003.3 |
| 20260902154801 | 62 | 222 | 4.0 | 16.0 | 0.00 | 0.00 | 0.00 | 78 | 1003.4 |
| 20260902154301 | 62 | 37 | 3.0 | 11.0 | 0.00 | 0.00 | 0.00 | 78 | 1003.6 |
| 20260902154033 | 62 | 87 | 4.0 | 13.0 | 0.00 | 0.00 | 0.00 | 77 | 1003.5 |
| 20260902153300 | 62 | 116 | 4.0 | 13.0 | 0.00 | 0.00 | 0.00 | 78 | 1003.5 |
| 20260902152801 | 61 | 91 | 4.0 | 11.0 | 0.00 | 0.00 | 0.00 | 78 | 1003.5 |
| 20260902152301 | 61 | 78 | 4.0 | 8.0 | 0.00 | 0.00 | 0.00 | 79 | 1003.5 |
| 20260902151801 | 61 | 328 | 3.0 | 7.0 | 0.00 | 0.00 | 0.00 | 78 | 1003.5 |
| 20260902151301 | 61 | 305 | 2.0 | 7.0 | 0.00 | 0.00 | 0.00 | 78 | 1003.4 |
| 20260902150800 | 61 | 353 | 2.0 | 9.0 | 0.00 | 0.00 | 0.00 | 78 | 1003.5 |
| 20260902150528 | 61 | 33 | 3.0 | 10.0 | 0.00 | 0.00 | 0.00 | 78 | 1003.5 |
| 20260902145804 | 61 | 345 | 3.0 | 10.0 | 0.00 | 0.00 | 0.00 | 79 | 1003.6 |
| 20260902145301 | 61 | 321 | 2.0 | 8.0 | 0.00 | 0.00 | 0.00 | 79 | 1003.7 |
| 20260902144801 | 61 | 358 | 2.0 | 8.0 | 0.00 | 0.00 | 0.00 | 80 | 1003.7 |
| 20260902144304 | 61 | 46 | 3.0 | 10.0 | 0.00 | 0.00 | 0.00 | 80 | 1003.8 |
| 20260902143805 | 61 | 303 | 3.0 | 10.0 | 0.00 | 0.00 | 0.00 | 80 | 1003.8 |
| 20260902143300 | 61 | 355 | 3.0 | 10.0 | 0.00 | 0.00 | 0.00 | 80 | 1003.8 |
| 20260902143025 | 61 | 200 | 3.0 | 10.0 | 0.00 | 0.00 | 0.00 | 80 | 1003.8 |
| 20260902142301 | 60 | 120 | 2.0 | 7.0 | 0.00 | 0.00 | 0.00 | 80 | 1003.7 |
| 20260902142021 | 60 | 135 | 3.0 | 9.0 | 0.00 | 0.00 | 0.00 | 81 | 1003.7 |
| 20260902141301 | 60 | 85 | 3.0 | 11.0 | 0.00 | 0.00 | 0.00 | 81 | 1003.7 |
| 20260902140804 | 60 | 168 | 4.0 | 11.0 | 0.00 | 0.00 | 0.00 | 81 | 1003.8 |
| 20260902140529 | 60 | 126 | 7.0 | 18.0 | 0.00 | 0.00 | 0.00 | 82 | 1003.8 |
| 20260902135801 | 60 | 90 | 8.0 | 18.0 | 0.00 | 0.00 | 0.00 | 82 | 1003.8 |
| 20260902135300 | 60 | 6 | 7.0 | 21.0 | 0.00 | 0.00 | 0.00 | 82 | 1003.9 |
| 20260902134801 | 60 | 97 | 8.0 | 21.0 | 0.00 | 0.00 | 0.00 | 82 | 1003.9 |
| 20260902134301 | 60 | 68 | 8.0 | 18.0 | 0.00 | 0.00 | 0.00 | 82 | 1004.0 |
| 20260902133800 | 60 | 106 | 9.0 | 18.0 | 0.00 | 0.00 | 0.00 | 82 | 1004.0 |
| 20260902133301 | 60 | 115 | 9.0 | 21.0 | 0.00 | 0.00 | 0.00 | 83 | 1003.9 |
| 20260902132801 | 60 | 145 | 8.0 | 21.0 | 0.00 | 0.00 | 0.00 | 83 | 1003.9 |
| 20260902132301 | 60 | 108 | 9.0 | 19.0 | 0.00 | 0.00 | 0.00 | 83 | 1004.0 |
| 20260902131801 | 60 | 91 | 11.0 | 19.0 | 0.00 | 0.00 | 0.00 | 82 | 1003.9 |
| 20260902131301 | 60 | 78 | 11.0 | 25.0 | 0.00 | 0.00 | 0.00 | 83 | 1003.8 |
| 20260902130803 | 60 | 95 | 10.0 | 25.0 | 0.00 | 0.00 | 0.00 | 83 | 1003.8 |
| 20260902130301 | 60 | 82 | 9.0 | 18.0 | 0.00 | 0.00 | 0.00 | 83 | 1003.9 |
| 20260902130026 | 60 | 95 | 9.0 | 17.0 | 0.00 | 0.00 | 0.00 | 82 | 1003.9 |
| 20260902125305 | 60 | 110 | 9.0 | 21.0 | 0.00 | 0.00 | 0.00 | 82 | 1004.0 |
| 20260902124800 | 60 | 90 | 8.0 | 21.0 | 0.00 | 0.00 | 0.00 | 83 | 1003.9 |
| 20260902124301 | 60 | 68 | 7.0 | 18.0 | 0.00 | 0.00 | 0.00 | 83 | 1004.1 |
| 20260902123800 | 60 | 77 | 8.0 | 19.0 | 0.00 | 0.00 | 0.00 | 82 | 1004.2 |
| 20260902123300 | 60 | 155 | 7.0 | 19.0 | 0.00 | 0.00 | 0.00 | 82 | 1004.1 |
| 20260902122802 | 60 | 134 | 8.0 | 19.0 | 0.00 | 0.00 | 0.00 | 82 | 1004.2 |
| 20260902122301 | 60 | 97 | 9.0 | 19.0 | 0.00 | 0.00 | 0.00 | 82 | 1004.2 |
| 20260902121805 | 60 | 154 | 8.0 | 18.0 | 0.00 | 0.00 | 0.00 | 82 | 1004.2 |
| 20260902121303 | 60 | 94 | 8.0 | 17.0 | 0.00 | 0.00 | 0.00 | 81 | 1004.4 |
| 20260902120801 | 60 | 56 | 8.0 | 17.0 | 0.00 | 0.00 | 0.00 | 81 | 1004.4 |
| 20260902120527 | 60 | 103 | 8.0 | 23.0 | 0.00 | 0.00 | 0.00 | 81 | 1004.4 |
| 20260902115801 | 60 | 130 | 8.0 | 23.0 | 0.00 | 0.00 | 0.00 | 81 | 1004.5 |
| 20260902115301 | 60 | 76 | 8.0 | 18.0 | 0.00 | 0.00 | 0.00 | 80 | 1004.4 |
| 20260902114800 | 60 | 109 | 9.0 | 24.0 | 0.00 | 0.00 | 0.00 | 80 | 1004.6 |
| 20260902114300 | 60 | 124 | 9.0 | 24.0 | 0.00 | 0.00 | 0.00 | 80 | 1004.5 |
| 20260902114021 | 60 | 143 | 7.0 | 17.0 | 0.00 | 0.00 | 0.00 | 80 | 1004.7 |
| 20260902113259 | 60 | 105 | 7.0 | 17.0 | 0.00 | 0.00 | 0.00 | 80 | 1004.7 |
| 20260902112758 | 60 | 121 | 8.0 | 20.0 | 0.00 | 0.00 | 0.00 | 79 | 1004.8 |
| 20260902112252 | 60 | 82 | 9.0 | 21.0 | 0.00 | 0.00 | 0.00 | 79 | 1004.8 |
| 20260902111747 | 60 | 116 | 9.0 | 21.0 | 0.00 | 0.00 | 0.00 | 79 | 1004.9 |
| 20260902111240 | 60 | 107 | 9.0 | 21.0 | 0.00 | 0.00 | 0.00 | 79 | 1005.0 |
| 20260902110734 | 60 | 152 | 9.0 | 19.0 | 0.00 | 0.00 | 0.00 | 79 | 1005.0 |
| 20260902110231 | 60 | 153 | 9.0 | 20.0 | 0.00 | 0.00 | 0.00 | 79 | 1005.0 |
| 20260902105730 | 60 | 143 | 9.0 | 20.0 | 0.00 | 0.00 | 0.00 | 79 | 1005.2 |
| 20260902105230 | 60 | 184 | 9.0 | 24.0 | 0.00 | 0.00 | 0.00 | 79 | 1005.3 |
| 20260902104730 | 60 | 119 | 9.0 | 24.0 | 0.00 | 0.00 | 0.00 | 79 | 1005.3 |
| 20260902104229 | 60 | 125 | 9.0 | 21.0 | 0.00 | 0.00 | 0.00 | 79 | 1005.2 |
| 20260902103730 | 60 | 110 | 9.0 | 21.0 | 0.00 | 0.00 | 0.00 | 80 | 1005.3 |
| 20260902103229 | 60 | 85 | 8.0 | 21.0 | 0.00 | 0.00 | 0.00 | 80 | 1005.3 |
| 20260902102730 | 60 | 80 | 9.0 | 21.0 | 0.00 | 0.00 | 0.00 | 80 | 1005.3 |
| 20260902102229 | 60 | 127 | 8.0 | 19.0 | 0.00 | 0.00 | 0.00 | 80 | 1005.4 |
| 20260902101730 | 60 | 147 | 8.0 | 16.0 | 0.00 | 0.00 | 0.00 | 80 | 1005.3 |
| 20260902101228 | 60 | 100 | 8.0 | 16.0 | 0.00 | 0.00 | 0.00 | 80 | 1005.6 |
| 20260902100729 | 60 | 114 | 9.0 | 21.0 | 0.00 | 0.00 | 0.00 | 80 | 1005.4 |
| 20260902100229 | 60 | 139 | 9.0 | 24.0 | 0.00 | 0.00 | 0.00 | 81 | 1005.5 |
| 20260902095729 | 60 | 124 | 9.0 | 24.0 | 0.00 | 0.00 | 0.00 | 81 | 1005.4 |
| 20260902095230 | 60 | 139 | 9.0 | 20.0 | 0.00 | 0.00 | 0.00 | 81 | 1005.6 |
| 20260902094733 | 60 | 132 | 8.0 | 18.0 | 0.00 | 0.00 | 0.00 | 82 | 1005.5 |
| 20260902093956 | 60 | 125 | 8.0 | 17.0 | 0.00 | 0.00 | 0.00 | 82 | 1005.6 |
| 20260902093229 | 60 | 90 | 8.0 | 19.0 | 0.00 | 0.00 | 0.00 | 83 | 1005.5 |
| 20260902092957 | 60 | 127 | 7.0 | 19.0 | 0.00 | 0.00 | 0.00 | 83 | 1005.6 |
| 20260902092231 | 60 | 103 | 5.0 | 14.0 | 0.00 | 0.00 | 0.00 | 83 | 1005.7 |
| 20260902091956 | 60 | 60 | 4.0 | 14.0 | 0.00 | 0.00 | 0.00 | 83 | 1005.9 |
| 20260902091457 | 60 | 195 | 3.0 | 11.0 | 0.00 | 0.00 | 0.00 | 84 | 1005.9 |
| 20260902090729 | 60 | 124 | 3.0 | 10.0 | 0.00 | 0.00 | 0.00 | 84 | 1006.0 |
| 20260902090229 | 60 | 91 | 3.0 | 10.0 | 0.00 | 0.00 | 0.00 | 84 | 1006.1 |
| 20260902085729 | 60 | 335 | 2.0 | 7.0 | 0.00 | 0.00 | 0.00 | 84 | 1006.0 |
| 20260902085229 | 60 | 325 | 2.0 | 7.0 | 0.00 | 0.00 | 0.00 | 84 | 1006.1 |
| 20260902085000 | 60 | 77 | 2.0 | 7.0 | 0.00 | 0.00 | 0.00 | 84 | 1006.2 |
| 20260902084230 | 60 | 281 | 2.0 | 6.0 | 0.00 | 0.00 | 0.00 | 84 | 1006.2 |
| 20260902083729 | 60 | 290 | 2.0 | 5.0 | 0.00 | 0.00 | 0.00 | 84 | 1006.2 |
| 20260902083500 | 60 | 320 | 2.0 | 5.0 | 0.00 | 0.00 | 0.00 | 84 | 1006.3 |
| 20260902082730 | 60 | 303 | 3.0 | 11.0 | 0.00 | 0.00 | 0.00 | 84 | 1006.3 |
| 20260902082502 | 60 | 6 | 3.0 | 11.0 | 0.00 | 0.00 | 0.00 | 84 | 1006.4 |
| 20260902081733 | 60 | 137 | 4.0 | 14.0 | 0.00 | 0.00 | 0.00 | 84 | 1006.3 |
| 20260902081457 | 60 | 58 | 4.0 | 18.0 | 0.00 | 0.00 | 0.00 | 84 | 1006.3 |
| 20260902080730 | 60 | 191 | 3.0 | 18.0 | 0.00 | 0.00 | 0.00 | 84 | 1006.3 |
| 20260902080229 | 60 | 285 | 3.0 | 10.0 | 0.00 | 0.00 | 0.00 | 84 | 1006.4 |
| 20260902075729 | 60 | 184 | 3.0 | 12.0 | 0.00 | 0.00 | 0.00 | 83 | 1006.5 |
| 20260902075229 | 60 | 20 | 4.0 | 12.0 | 0.00 | 0.00 | 0.00 | 84 | 1006.5 |
| 20260902074729 | 60 | 149 | 4.0 | 12.0 | 0.00 | 0.00 | 0.00 | 84 | 1006.6 |
| 20260902074228 | 60 | 37 | 3.0 | 17.0 | 0.00 | 0.00 | 0.00 | 84 | 1006.5 |
| 20260902073729 | 60 | 218 | 3.0 | 17.0 | 0.00 | 0.00 | 0.00 | 84 | 1006.6 |
| 20260902073229 | 60 | 51 | 3.0 | 10.0 | 0.00 | 0.00 | 0.00 | 84 | 1006.6 |
| 20260902072729 | 60 | 347 | 3.0 | 12.0 | 0.00 | 0.00 | 0.00 | 84 | 1006.6 |
| 20260902072229 | 60 | 349 | 3.0 | 12.0 | 0.00 | 0.00 | 0.00 | 84 | 1006.6 |
| 20260902071729 | 60 | 317 | 3.0 | 13.0 | 0.00 | 0.00 | 0.00 | 84 | 1006.6 |
| 20260902071229 | 60 | 353 | 4.0 | 13.0 | 0.00 | 0.00 | 0.00 | 83 | 1006.6 |
| 20260902070729 | 60 | 53 | 2.0 | 13.0 | 0.00 | 0.00 | 0.00 | 83 | 1006.6 |
| 20260902070229 | 60 | 179 | 2.0 | 10.0 | 0.00 | 0.00 | 0.00 | 83 | 1006.6 |
| 20260902065729 | 60 | 53 | 3.0 | 10.0 | 0.00 | 0.00 | 0.00 | 83 | 1006.8 |
| 20260902065229 | 60 | 139 | 2.0 | 9.0 | 0.00 | 0.00 | 0.00 | 83 | 1006.9 |
| 20260902064728 | 60 | 109 | 2.0 | 11.0 | 0.00 | 0.00 | 0.00 | 83 | 1007.0 |
| 20260902064232 | 60 | 103 | 2.0 | 11.0 | 0.00 | 0.00 | 0.00 | 83 | 1006.9 |
| 20260902063732 | 61 | 37 | 2.0 | 10.0 | 0.00 | 0.00 | 0.00 | 83 | 1007.0 |
| 20260902063232 | 61 | 118 | 1.0 | 10.0 | 0.00 | 0.00 | 0.00 | 82 | 1007.0 |
| 20260902062732 | 61 | 108 | 1.0 | 7.0 | 0.00 | 0.00 | 0.00 | 82 | 1007.1 |
| 20260902062231 | 61 | 95 | 2.0 | 7.0 | 0.00 | 0.00 | 0.00 | 82 | 1007.1 |
| 20260902061732 | 61 | 114 | 2.0 | 11.0 | 0.00 | 0.00 | 0.00 | 81 | 1007.2 |
| 20260902061458 | 61 | 276 | 2.0 | 11.0 | 0.00 | 0.00 | 0.00 | 81 | 1007.1 |
| 20260902060731 | 61 | 89 | 3.0 | 10.0 | 0.00 | 0.00 | 0.00 | 81 | 1007.1 |
| 20260902060231 | 62 | 118 | 3.0 | 13.0 | 0.00 | 0.00 | 0.00 | 81 | 1007.2 |
| 20260902055730 | 62 | 88 | 3.0 | 13.0 | 0.00 | 0.00 | 0.00 | 81 | 1007.3 |
| 20260902055230 | 62 | 172 | 3.0 | 8.0 | 0.00 | 0.00 | 0.00 | 80 | 1007.4 |
| 20260902054731 | 62 | 110 | 3.0 | 10.0 | 0.00 | 0.00 | 0.00 | 80 | 1007.4 |
| 20260902054230 | 62 | 195 | 3.0 | 10.0 | 0.00 | 0.00 | 0.00 | 79 | 1007.3 |
| 20260902053231 | 62 | 122 | 2.0 | 9.0 | 0.00 | 0.00 | 0.00 | 78 | 1007.3 |
| 20260902052725 | 62 | 97 | 3.0 | 11.0 | 0.00 | 0.00 | 0.00 | 78 | 1007.4 |
| 20260902052218 | 62 | 194 | 4.0 | 11.0 | 0.00 | 0.00 | 0.00 | 77 | 1007.4 |
| 20260902051713 | 62 | 110 | 5.0 | 12.0 | 0.00 | 0.00 | 0.00 | 77 | 1007.5 |
| 20260902051213 | 62 | 66 | 5.0 | 12.0 | 0.00 | 0.00 | 0.00 | 76 | 1007.5 |
| 20260902050713 | 63 | 107 | 5.0 | 11.0 | 0.00 | 0.00 | 0.00 | 76 | 1007.5 |
| 20260902050440 | 63 | 166 | 3.0 | 11.0 | 0.00 | 0.00 | 0.00 | 76 | 1007.5 |
| 20260902045713 | 63 | 132 | 2.0 | 7.0 | 0.00 | 0.00 | 0.00 | 76 | 1007.6 |
| 20260902045212 | 63 | 165 | 2.0 | 8.0 | 0.00 | 0.00 | 0.00 | 76 | 1007.6 |
| 20260902044938 | 63 | 159 | 3.0 | 11.0 | 0.00 | 0.00 | 0.00 | 76 | 1007.4 |
| 20260902044213 | 63 | 161 | 5.0 | 16.0 | 0.00 | 0.00 | 0.00 | 76 | 1007.6 |
| 20260902043713 | 64 | 104 | 6.0 | 16.0 | 0.00 | 0.00 | 0.00 | 76 | 1007.6 |
| 20260902042719 | 64 | 183 | 6.0 | 12.0 | 0.00 | 0.00 | 0.00 | 75 | 1007.5 |
| 20260902042210 | 64 | 130 | 6.0 | 12.0 | 0.00 | 0.00 | 0.00 | 75 | 1007.6 |
| 20260902041709 | 64 | 108 | 7.0 | 16.0 | 0.00 | 0.00 | 0.00 | 74 | 1007.6 |
| 20260902041209 | 64 | 138 | 8.0 | 16.0 | 0.00 | 0.00 | 0.00 | 74 | 1007.6 |
| 20260902040709 | 64 | 149 | 7.0 | 14.0 | 0.00 | 0.00 | 0.00 | 74 | 1007.6 |
| 20260902040208 | 64 | 184 | 8.0 | 16.0 | 0.00 | 0.00 | 0.00 | 74 | 1007.5 |
| 20260902035709 | 64 | 197 | 7.0 | 16.0 | 0.00 | 0.00 | 0.00 | 73 | 1007.5 |
| 20260902035208 | 64 | 130 | 6.0 | 13.0 | 0.00 | 0.00 | 0.00 | 73 | 1007.4 |
| 20260902034708 | 64 | 153 | 7.0 | 13.0 | 0.00 | 0.00 | 0.00 | 73 | 1007.4 |
| 20260902034209 | 64 | 143 | 8.0 | 13.0 | 0.00 | 0.00 | 0.00 | 73 | 1007.4 |
| 20260902033702 | 64 | 168 | 8.0 | 15.0 | 0.00 | 0.00 | 0.00 | 73 | 1007.5 |
| 20260902033202 | 64 | 108 | 8.0 | 15.0 | 0.00 | 0.00 | 0.00 | 73 | 1007.5 |
| 20260902032703 | 64 | 126 | 8.0 | 16.0 | 0.00 | 0.00 | 0.00 | 72 | 1007.5 |
| 20260902031702 | 65 | 110 | 7.0 | 16.0 | 0.00 | 0.00 | 0.00 | 73 | 1007.5 |
| 20260902031201 | 65 | 130 | 7.0 | 13.0 | 0.00 | 0.00 | 0.00 | 73 | 1007.4 |
| 20260902030701 | 65 | 98 | 7.0 | 13.0 | 0.00 | 0.00 | 0.00 | 73 | 1007.4 |
| 20260902030426 | 65 | 132 | 7.0 | 12.0 | 0.00 | 0.00 | 0.00 | 73 | 1007.5 |
| 20260902025703 | 65 | 197 | 6.0 | 12.0 | 0.00 | 0.00 | 0.00 | 73 | 1007.5 |
| 20260902025203 | 65 | 159 | 6.0 | 13.0 | 0.00 | 0.00 | 0.00 | 73 | 1007.5 |
| 20260902024701 | 64 | 132 | 5.0 | 13.0 | 0.00 | 0.00 | 0.00 | 73 | 1007.6 |
| 20260902024200 | 64 | 162 | 4.0 | 10.0 | 0.00 | 0.00 | 0.00 | 74 | 1007.5 |
| 20260902023203 | 64 | 130 | 5.0 | 12.0 | 0.00 | 0.00 | 0.00 | 73 | 1007.5 |
| 20260902022657 | 64 | 97 | 6.0 | 15.0 | 0.00 | 0.00 | 0.00 | 72 | 1007.4 |
| 20260902022152 | 64 | 167 | 8.0 | 19.0 | 0.00 | 0.00 | 0.00 | 73 | 1007.5 |
| 20260902021915 | 64 | 141 | 8.0 | 19.0 | 0.00 | 0.00 | 0.00 | 72 | 1007.4 |
| 20260902021140 | 64 | 198 | 7.0 | 15.0 | 0.00 | 0.00 | 0.00 | 73 | 1007.4 |
| 20260902020636 | 64 | 103 | 6.0 | 12.0 | 0.00 | 0.00 | 0.00 | 73 | 1007.3 |
| 20260902020136 | 64 | 153 | 7.0 | 15.0 | 0.00 | 0.00 | 0.00 | 72 | 1007.5 |
| 20260902015635 | 64 | 159 | 7.0 | 15.0 | 0.00 | 0.00 | 0.00 | 72 | 1007.5 |
| 20260902015132 | 64 | 162 | 7.0 | 15.0 | 0.00 | 0.00 | 0.00 | 71 | 1007.5 |
| 20260902014130 | 65 | 234 | 8.0 | 18.0 | 0.00 | 0.00 | 0.00 | 70 | 1007.5 |
| 20260902013629 | 65 | 207 | 7.0 | 18.0 | 0.00 | 0.00 | 0.00 | 71 | 1007.6 |
| 20260902013130 | 64 | 137 | 7.0 | 16.0 | 0.00 | 0.00 | 0.00 | 71 | 1007.6 |
| 20260902012629 | 64 | 85 | 8.0 | 15.0 | 0.00 | 0.00 | 0.00 | 71 | 1007.5 |
| 20260902012352 | 64 | 162 | 8.0 | 16.0 | 0.00 | 0.00 | 0.00 | 71 | 1007.4 |
| 20260902011630 | 64 | 163 | 7.0 | 16.0 | 0.00 | 0.00 | 0.00 | 71 | 1007.5 |
| 20260902011357 | 64 | 124 | 6.0 | 16.0 | 0.00 | 0.00 | 0.00 | 71 | 1007.5 |
| 20260902010856 | 64 | 139 | 7.0 | 16.0 | 0.00 | 0.00 | 0.00 | 72 | 1007.5 |
| 20260902010129 | 64 | 165 | 9.0 | 18.0 | 0.00 | 0.00 | 0.00 | 72 | 1007.6 |
| 20260902005629 | 64 | 133 | 9.0 | 18.0 | 0.00 | 0.00 | 0.00 | 71 | 1007.5 |
| 20260902005128 | 64 | 113 | 9.0 | 16.0 | 0.00 | 0.00 | 0.00 | 70 | 1007.6 |
| 20260902004629 | 65 | 145 | 9.0 | 16.0 | 0.00 | 0.00 | 0.00 | 70 | 1007.5 |
| 20260902004129 | 65 | 112 | 9.0 | 19.0 | 0.00 | 0.00 | 0.00 | 70 | 1007.4 |
| 20260902003631 | 65 | 104 | 8.0 | 19.0 | 0.00 | 0.00 | 0.00 | 69 | 1007.4 |
| 20260902003130 | 65 | 100 | 8.0 | 16.0 | 0.00 | 0.00 | 0.00 | 69 | 1007.4 |
| 20260902002858 | 65 | 193 | 9.0 | 16.0 | 0.00 | 0.00 | 0.00 | 69 | 1007.3 |
| 20260902002351 | 65 | 183 | 8.0 | 18.0 | 0.00 | 0.00 | 0.00 | 69 | 1007.3 |
| 20260902001902 | 65 | 108 | 9.0 | 18.0 | 0.00 | 0.00 | 0.00 | 68 | 1007.3 |
| 20260902001129 | 65 | 114 | 7.0 | 17.0 | 0.00 | 0.00 | 0.00 | 68 | 1007.4 |
| 20260902000629 | 65 | 166 | 8.0 | 17.0 | 0.00 | 0.00 | 0.00 | 69 | 1007.4 |
| 20260902000353 | 64 | 103 | 9.0 | 18.0 | 0.00 | 0.00 | 0.00 | 70 | 1007.3 |
| 20260901235629 | 65 | 130 | 9.0 | 18.0 | 0.00 | 0.00 | 0.00 | 70 | 1007.3 |
| 20260901235128 | 65 | 181 | 11.0 | 21.0 | 0.00 | 0.00 | 0.00 | 69 | 1007.2 |
| 20260901234629 | 65 | 118 | 11.0 | 21.0 | 0.00 | 0.00 | 0.00 | 68 | 1007.2 |
| 20260901234129 | 65 | 113 | 10.0 | 19.0 | 0.00 | 0.00 | 0.00 | 67 | 1007.3 |
| 20260901233852 | 65 | 147 | 10.0 | 19.0 | 0.00 | 0.00 | 0.00 | 68 | 1007.3 |
| 20260901233129 | 65 | 112 | 10.0 | 20.0 | 0.00 | 0.00 | 0.00 | 67 | 1007.2 |
| 20260901232859 | 65 | 132 | 11.0 | 20.0 | 0.00 | 0.00 | 0.00 | 67 | 1007.2 |
| 20260901232129 | 65 | 122 | 11.0 | 20.0 | 0.00 | 0.00 | 0.00 | 67 | 1007.2 |
| 20260901231629 | 66 | 157 | 9.0 | 20.0 | 0.00 | 0.00 | 0.00 | 66 | 1007.1 |
| 20260901231124 | 66 | 125 | 9.0 | 20.0 | 0.00 | 0.00 | 0.00 | 67 | 1007.1 |
| 20260901230620 | 66 | 153 | 9.0 | 20.0 | 0.00 | 0.00 | 0.00 | 67 | 1006.9 |
| 20260901230114 | 66 | 197 | 8.0 | 20.0 | 0.00 | 0.00 | 0.00 | 67 | 1007.0 |
| 20260901225606 | 66 | 118 | 8.0 | 21.0 | 0.00 | 0.00 | 0.00 | 67 | 1006.9 |
| 20260901225329 | 67 | 144 | 8.0 | 21.0 | 0.00 | 0.00 | 0.00 | 65 | 1006.9 |
| 20260901224605 | 66 | 55 | 7.0 | 21.0 | 0.00 | 0.00 | 0.00 | 66 | 1007.2 |
| 20260901224104 | 66 | 148 | 9.0 | 21.0 | 0.00 | 0.00 | 0.00 | 69 | 1007.0 |
| 20260901223604 | 65 | 64 | 11.0 | 22.0 | 0.00 | 0.00 | 0.00 | 70 | 1007.1 |
| 20260901223101 | 65 | 103 | 11.0 | 22.0 | 0.00 | 0.00 | 0.00 | 71 | 1007.1 |
| 20260901222605 | 65 | 108 | 11.0 | 20.0 | 0.00 | 0.00 | 0.00 | 72 | 1007.1 |
| 20260901222102 | 64 | 139 | 11.0 | 22.0 | 0.00 | 0.00 | 0.00 | 72 | 1007.2 |
| 20260901221602 | 64 | 127 | 12.0 | 23.0 | 0.00 | 0.00 | 0.00 | 73 | 1007.3 |
| 20260901221330 | 64 | 100 | 14.0 | 27.0 | 0.00 | 0.00 | 0.00 | 73 | 1007.3 |
| 20260901220601 | 64 | 189 | 13.0 | 27.0 | 0.00 | 0.00 | 0.00 | 73 | 1007.3 |
| 20260901215604 | 63 | 126 | 13.0 | 26.0 | 0.00 | 0.00 | 0.00 | 73 | 1007.2 |
| 20260901215103 | 63 | 105 | 13.0 | 26.0 | 0.00 | 0.00 | 0.00 | 73 | 1007.2 |
| 20260901214603 | 64 | 165 | 13.0 | 26.0 | 0.00 | 0.00 | 0.00 | 73 | 1007.2 |
| 20260901214104 | 64 | 167 | 14.0 | 27.0 | 0.00 | 0.00 | 0.00 | 74 | 1007.3 |
| 20260901213604 | 63 | 99 | 14.0 | 27.0 | 0.00 | 0.00 | 0.00 | 74 | 1007.3 |
| 20260901213102 | 63 | 139 | 15.0 | 27.0 | 0.00 | 0.00 | 0.00 | 74 | 1007.3 |
| 20260901212602 | 63 | 130 | 14.0 | 26.0 | 0.00 | 0.00 | 0.00 | 75 | 1007.3 |
| 20260901212102 | 63 | 177 | 13.0 | 26.0 | 0.00 | 0.00 | 0.00 | 75 | 1007.4 |
| 20260901211823 | 63 | 136 | 13.0 | 24.0 | 0.00 | 0.00 | 0.00 | 75 | 1007.4 |
| 20260901211102 | 63 | 117 | 14.0 | 24.0 | 0.00 | 0.00 | 0.00 | 74 | 1007.4 |
| 20260901210602 | 63 | 169 | 13.0 | 23.0 | 0.00 | 0.00 | 0.00 | 73 | 1007.6 |
| 20260901205832 | 64 | 172 | 12.0 | 23.0 | 0.00 | 0.00 | 0.00 | 72 | 1007.4 |
| 20260901204602 | 64 | 146 | 11.0 | 25.0 | 0.00 | 0.00 | 0.00 | 72 | 1007.5 |
| 20260901204101 | 64 | 135 | 11.0 | 25.0 | 0.00 | 0.00 | 0.00 | 72 | 1007.4 |
| 20260901203601 | 65 | 110 | 11.0 | 20.0 | 0.00 | 0.00 | 0.00 | 72 | 1007.5 |
| 20260901203101 | 65 | 126 | 12.0 | 22.0 | 0.00 | 0.00 | 0.00 | 72 | 1007.5 |
| 20260901202831 | 65 | 79 | 11.0 | 23.0 | 0.00 | 0.00 | 0.00 | 73 | 1007.5 |
| 20260901202101 | 65 | 98 | 11.0 | 23.0 | 0.00 | 0.00 | 0.00 | 72 | 1007.5 |
| 20260901201601 | 65 | 105 | 10.0 | 20.0 | 0.00 | 0.00 | 0.00 | 73 | 1007.4 |
| 20260901201101 | 66 | 135 | 9.0 | 18.0 | 0.00 | 0.00 | 0.00 | 72 | 1007.4 |
| 20260901200601 | 66 | 153 | 8.0 | 18.0 | 0.00 | 0.00 | 0.00 | 72 | 1007.5 |
| 20260901200101 | 66 | 211 | 8.0 | 19.0 | 0.00 | 0.00 | 0.00 | 70 | 1007.4 |
| 20260901195601 | 67 | 167 | 8.0 | 20.0 | 0.00 | 0.00 | 0.00 | 71 | 1007.5 |
| 20260901195101 | 67 | 126 | 8.0 | 20.0 | 0.00 | 0.00 | 0.00 | 70 | 1007.5 |
| 20260901194604 | 67 | 155 | 9.0 | 20.0 | 0.00 | 0.00 | 0.00 | 71 | 1007.6 |
| 20260901194102 | 67 | 147 | 8.0 | 20.0 | 0.00 | 0.00 | 0.00 | 70 | 1007.6 |
| 20260901193833 | 67 | 218 | 7.0 | 19.0 | 0.00 | 0.00 | 0.00 | 70 | 1007.7 |
| 20260901193101 | 68 | 227 | 5.0 | 12.0 | 0.00 | 0.00 | 0.00 | 69 | 1007.7 |
| 20260901192832 | 67 | 181 | 4.0 | 10.0 | 0.00 | 0.00 | 0.00 | 69 | 1007.7 |
| 20260901192104 | 67 | 231 | 4.0 | 11.0 | 0.00 | 0.00 | 0.00 | 68 | 1007.7 |
| 20260901191602 | 69 | 176 | 5.0 | 11.0 | 0.00 | 0.00 | 0.00 | 66 | 1007.8 |
| 20260901191332 | 68 | 103 | 5.0 | 11.0 | 0.00 | 0.00 | 0.00 | 67 | 1007.8 |
| 20260901190602 | 68 | 161 | 4.0 | 9.0 | 0.00 | 0.00 | 0.00 | 67 | 1007.9 |
| 20260901190101 | 68 | 254 | 4.0 | 9.0 | 0.00 | 0.00 | 0.00 | 67 | 1007.8 |
| 20260901185828 | 67 | 37 | 5.0 | 15.0 | 0.00 | 0.00 | 0.00 | 66 | 1007.8 |
| 20260901185051 | 67 | 203 | 5.0 | 15.0 | 0.00 | 0.00 | 0.00 | 66 | 1007.7 |
| 20260901184545 | 68 | 200 | 3.0 | 10.0 | 0.00 | 0.00 | 0.00 | 67 | 1007.9 |
| 20260901184306 | 67 | 340 | 3.0 | 9.0 | 0.00 | 0.00 | 0.00 | 69 | 1007.8 |
| 20260901183535 | 67 | 313 | 4.0 | 14.0 | 0.00 | 0.00 | 0.00 | 70 | 1007.9 |
| 20260901183035 | 67 | 253 | 4.0 | 14.0 | 0.00 | 0.00 | 0.00 | 69 | 1007.9 |
| 20260901182536 | 67 | 188 | 4.0 | 15.0 | 0.00 | 0.00 | 0.00 | 70 | 1007.9 |
| 20260901182035 | 65 | 120 | 4.0 | 15.0 | 0.00 | 0.00 | 0.00 | 72 | 1007.9 |
| 20260901181534 | 65 | 260 | 4.0 | 11.0 | 0.00 | 0.00 | 0.00 | 72 | 1008.0 |
| 20260901181033 | 65 | 100 | 3.0 | 11.0 | 0.00 | 0.00 | 0.00 | 71 | 1007.9 |
| 20260901180530 | 65 | 285 | 3.0 | 8.0 | 0.00 | 0.00 | 0.00 | 71 | 1008.0 |
| 20260901180032 | 65 | 309 | 3.0 | 8.0 | 0.00 | 0.00 | 0.00 | 72 | 1008.0 |
| 20260901175532 | 65 | 322 | 4.0 | 9.0 | 0.00 | 0.00 | 0.00 | 71 | 1008.0 |
| 20260901175032 | 65 | 266 | 3.0 | 10.0 | 0.00 | 0.00 | 0.00 | 71 | 1008.0 |
| 20260901174757 | 65 | 161 | 3.0 | 14.0 | 0.00 | 0.00 | 0.00 | 72 | 1008.0 |
| 20260901174255 | 65 | 25 | 3.0 | 14.0 | 0.00 | 0.00 | 0.00 | 73 | 1008.0 |
| 20260901173529 | 64 | 301 | 3.0 | 10.0 | 0.00 | 0.00 | 0.00 | 73 | 1008.0 |
| 20260901173029 | 64 | 307 | 4.0 | 11.0 | 0.00 | 0.00 | 0.00 | 72 | 1008.0 |
| 20260901172529 | 64 | 322 | 5.0 | 13.0 | 0.00 | 0.00 | 0.00 | 72 | 1007.9 |
| 20260901172029 | 64 | 196 | 7.0 | 16.0 | 0.00 | 0.00 | 0.00 | 72 | 1007.9 |
| 20260901171529 | 64 | 207 | 8.0 | 17.0 | 0.00 | 0.00 | 0.00 | 72 | 1007.8 |
| 20260901171029 | 64 | 114 | 8.0 | 19.0 | 0.00 | 0.00 | 0.00 | 73 | 1007.9 |
| 20260901170527 | 64 | 138 | 6.0 | 19.0 | 0.00 | 0.00 | 0.00 | 72 | 1008.0 |